createdAt,value
2022-07-26T00:02:04.202Z,17.00
2022-07-26T00:04:54.304Z,16.10
2022-07-26T00:07:46.111Z,17.00
2022-07-26T00:10:34.077Z,16.90
2022-07-26T00:13:28.928Z,18.20
2022-07-26T00:16:18.960Z,16.80
2022-07-26T00:19:13.264Z,16.80
2022-07-26T00:22:22.557Z,15.40
2022-07-26T00:25:11.915Z,16.90
2022-07-26T00:28:04.981Z,16.70
2022-07-26T00:30:59.044Z,16.70
2022-07-26T00:33:47.051Z,16.70
2022-07-26T00:36:37.109Z,16.60
2022-07-26T00:39:38.266Z,15.40
2022-07-26T00:42:28.770Z,16.60
2022-07-26T00:45:34.744Z,16.50
2022-07-26T00:48:28.817Z,16.50
2022-07-26T00:51:21.233Z,16.50
2022-07-26T00:54:17.466Z,16.60
2022-07-26T00:57:21.032Z,17.30
2022-07-26T01:00:19.324Z,16.40
2022-07-26T01:03:21.840Z,16.40
2022-07-26T01:06:12.347Z,16.30
2022-07-26T01:09:08.115Z,16.40
2022-07-26T01:15:21.959Z,16.50
2022-07-26T01:18:21.999Z,16.30
2022-07-26T01:21:14.336Z,16.30
2022-07-26T01:24:08.110Z,16.60
2022-07-26T01:27:04.620Z,16.40
2022-07-26T01:30:10.067Z,16.40
2022-07-26T01:33:00.113Z,16.50
2022-07-26T01:36:16.861Z,16.40
2022-07-26T01:39:25.298Z,17.80
2022-07-26T01:42:15.441Z,16.60
2022-07-26T01:45:03.606Z,16.60
2022-07-26T01:47:52.154Z,16.60
2022-07-26T01:50:41.517Z,16.50
2022-07-26T01:53:45.398Z,16.50
2022-07-26T01:56:42.660Z,16.70
2022-07-26T01:59:30.240Z,16.60
2022-07-26T02:02:23.001Z,16.70
2022-07-26T02:05:13.376Z,16.70
2022-07-26T02:08:07.520Z,16.80
2022-07-26T02:11:08.086Z,16.70
2022-07-26T02:13:57.985Z,16.80
2022-07-26T02:16:48.003Z,16.80
2022-07-26T02:19:35.647Z,16.70
2022-07-26T02:22:32.869Z,16.90
2022-07-26T02:25:22.943Z,16.90
2022-07-26T02:28:11.478Z,17.70
2022-07-26T02:31:07.966Z,18.20
2022-07-26T02:33:57.514Z,16.80
2022-07-26T02:36:45.962Z,16.80
2022-07-26T02:39:43.450Z,16.80
2022-07-26T02:42:34.213Z,16.80
2022-07-26T02:45:30.811Z,16.90
2022-07-26T02:48:21.272Z,16.90
2022-07-26T02:51:10.831Z,16.90
2022-07-26T02:53:58.861Z,15.50
2022-07-26T02:56:46.478Z,16.90
2022-07-26T02:59:38.296Z,16.90
2022-07-26T03:02:31.877Z,17.00
2022-07-26T03:05:23.569Z,16.90
2022-07-26T03:08:12.956Z,16.90
2022-07-26T03:11:01.500Z,17.00
2022-07-26T03:13:49.553Z,16.90
2022-07-26T03:16:40.648Z,17.00
2022-07-26T03:19:28.725Z,16.90
2022-07-26T03:22:21.086Z,16.90
2022-07-26T03:25:09.235Z,16.90
2022-07-26T03:28:03.823Z,17.00
2022-07-26T03:30:52.537Z,16.90
2022-07-26T03:33:40.928Z,17.30
2022-07-26T03:36:33.611Z,16.80
2022-07-26T03:39:25.577Z,17.00
2022-07-26T03:42:14.296Z,17.00
2022-07-26T03:45:01.877Z,16.90
2022-07-26T03:48:03.929Z,16.90
2022-07-26T03:50:52.075Z,16.40
2022-07-26T03:53:39.946Z,16.90
2022-07-26T03:59:52.127Z,16.90
2022-07-26T04:03:12.679Z,16.10
2022-07-26T04:06:11.050Z,16.90
2022-07-26T04:08:59.647Z,17.20
2022-07-26T04:11:53.083Z,16.80
2022-07-26T04:14:43.078Z,17.00
2022-07-26T04:21:11.893Z,16.90
2022-07-26T04:24:12.688Z,16.90
2022-07-26T04:27:01.664Z,16.20
2022-07-26T04:34:22.149Z,16.70
2022-07-26T04:37:10.326Z,16.90
2022-07-26T04:48:53.308Z,16.90
2022-07-26T04:51:41.636Z,17.00
2022-07-26T04:54:48.560Z,17.10
2022-07-26T04:57:55.421Z,17.00
2022-07-26T05:01:08.414Z,18.00
2022-07-26T05:04:15.862Z,17.10
2022-07-26T05:10:23.435Z,17.20
2022-07-26T05:13:15.890Z,17.40
2022-07-26T05:19:24.546Z,16.50
2022-07-26T05:22:15.137Z,17.10
2022-07-26T05:25:03.931Z,17.50
2022-07-26T05:32:57.606Z,17.40
2022-07-26T05:36:20.783Z,17.40
2022-07-26T05:39:16.216Z,17.20
2022-07-26T05:42:05.426Z,17.60
2022-07-26T05:44:55.982Z,17.60
2022-07-26T05:47:44.608Z,16.40
2022-07-26T05:50:40.553Z,16.40
2022-07-26T05:53:31.748Z,17.00
2022-07-26T05:56:20.781Z,17.70
2022-07-26T05:59:09.084Z,17.60
2022-07-26T06:01:57.302Z,17.50
2022-07-26T06:04:47.600Z,17.50
2022-07-26T06:07:36.323Z,17.80
2022-07-26T06:10:25.259Z,17.40
2022-07-26T06:13:13.426Z,16.10
2022-07-26T06:16:01.983Z,17.70
2022-07-26T06:18:50.739Z,17.50
2022-07-26T06:21:50.004Z,17.50
2022-07-26T06:24:38.238Z,17.80
2022-07-26T06:27:28.447Z,17.60
2022-07-26T06:30:18.871Z,18.10
2022-07-26T06:33:12.836Z,18.20
2022-07-26T06:36:09.771Z,18.30
2022-07-26T06:39:05.603Z,18.30
2022-07-26T06:41:53.681Z,18.60
2022-07-26T06:44:48.508Z,18.40
2022-07-26T06:47:37.079Z,18.60
2022-07-26T06:50:26.960Z,18.70
2022-07-26T06:53:14.962Z,19.00
2022-07-26T06:56:06.712Z,19.20
2022-07-26T06:58:55.591Z,19.40
2022-07-26T07:01:51.267Z,19.70
2022-07-26T07:04:44.949Z,20.00
2022-07-26T07:07:32.775Z,20.20
2022-07-26T07:10:23.827Z,20.30
2022-07-26T07:13:12.439Z,20.40
2022-07-26T07:16:14.767Z,21.80
2022-07-26T07:19:03.962Z,20.40
2022-07-26T07:21:52.678Z,20.40
2022-07-26T07:24:44.493Z,20.30
2022-07-26T07:27:34.722Z,20.20
2022-07-26T07:30:22.615Z,20.10
2022-07-26T07:33:22.792Z,20.00
2022-07-26T07:36:14.558Z,19.90
2022-07-26T07:39:06.304Z,19.70
2022-07-26T07:41:55.760Z,19.60
2022-07-26T07:44:50.470Z,19.30
2022-07-26T07:47:41.217Z,19.90
2022-07-26T07:50:31.070Z,19.40
2022-07-26T07:53:22.434Z,20.20
2022-07-26T07:56:10.102Z,19.10
2022-07-26T07:58:58.032Z,19.10
2022-07-26T08:01:49.458Z,20.10
2022-07-26T08:04:45.469Z,19.10
2022-07-26T08:07:36.272Z,19.10
2022-07-26T08:10:27.594Z,19.10
2022-07-26T08:13:15.416Z,20.50
2022-07-26T08:16:10.147Z,19.10
2022-07-26T08:18:59.965Z,18.90
2022-07-26T08:21:51.501Z,18.90
2022-07-26T08:24:40.793Z,18.80
2022-07-26T08:27:40.623Z,18.80
2022-07-26T08:30:32.034Z,18.90
2022-07-26T08:33:21.053Z,18.90
2022-07-26T08:36:10.979Z,19.20
2022-07-26T08:38:58.699Z,20.20
2022-07-26T08:41:46.925Z,19.30
2022-07-26T08:44:36.049Z,19.60
2022-07-26T08:47:37.792Z,20.80
2022-07-26T08:50:34.246Z,19.90
2022-07-26T08:53:22.329Z,20.00
2022-07-26T08:56:12.805Z,20.20
2022-07-26T08:59:01.918Z,20.40
2022-07-26T09:01:57.487Z,21.40
2022-07-26T09:04:46.734Z,19.40
2022-07-26T09:07:36.440Z,20.60
2022-07-26T09:10:30.831Z,19.10
2022-07-26T09:13:19.203Z,20.70
2022-07-26T09:16:11.323Z,20.50
2022-07-26T09:19:19.519Z,20.40
2022-07-26T09:22:10.568Z,20.40
2022-07-26T09:24:58.983Z,20.60
2022-07-26T09:27:46.947Z,21.40
2022-07-26T09:30:35.962Z,20.60
2022-07-26T09:33:50.328Z,20.50
2022-07-26T09:36:54.026Z,20.60
2022-07-26T09:39:59.056Z,20.80
2022-07-26T09:43:01.502Z,20.90
2022-07-26T09:46:07.988Z,21.00
2022-07-26T09:49:13.122Z,21.50
2022-07-26T09:52:02.886Z,21.00
2022-07-26T09:54:51.505Z,21.10
2022-07-26T09:57:46.733Z,21.10
2022-07-26T10:01:02.222Z,21.10
2022-07-26T10:03:51.099Z,21.30
2022-07-26T10:06:41.204Z,20.60
2022-07-26T10:09:33.324Z,21.40
2022-07-26T10:12:30.176Z,21.40
2022-07-26T10:15:37.802Z,21.50
2022-07-26T10:18:47.456Z,21.90
2022-07-26T10:21:39.336Z,22.10
2022-07-26T10:24:29.184Z,22.40
2022-07-26T10:27:32.156Z,22.50
2022-07-26T10:30:34.896Z,22.50
2022-07-26T10:33:28.969Z,22.50
2022-07-26T10:36:23.228Z,22.20
2022-07-26T10:39:13.373Z,22.00
2022-07-26T10:42:07.251Z,22.00
2022-07-26T10:45:20.606Z,21.90
2022-07-26T10:48:20.157Z,22.00
2022-07-26T10:51:25.043Z,22.30
2022-07-26T10:54:15.423Z,22.50
2022-07-26T10:57:03.562Z,22.40
2022-07-26T10:59:56.431Z,23.60
2022-07-26T11:02:48.859Z,22.70
2022-07-26T11:05:37.665Z,22.80
2022-07-26T11:08:30.616Z,22.80
2022-07-26T11:11:29.186Z,22.60
2022-07-26T11:14:22.590Z,23.40
2022-07-26T11:17:17.143Z,22.30
2022-07-26T11:20:06.383Z,22.30
2022-07-26T11:22:57.406Z,21.90
2022-07-26T11:25:44.813Z,21.80
2022-07-26T11:28:44.867Z,21.80
2022-07-26T11:31:51.180Z,21.50
2022-07-26T11:34:48.840Z,20.90
2022-07-26T11:37:39.213Z,21.10
2022-07-26T11:40:46.520Z,21.00
2022-07-26T11:43:39.846Z,19.50
2022-07-26T11:46:39.437Z,21.10
2022-07-26T11:50:01.153Z,20.20
2022-07-26T11:52:37.812Z,21.30
2022-07-26T11:55:31.302Z,21.30
2022-07-26T11:58:26.252Z,21.40
2022-07-26T12:01:16.359Z,22.40
2022-07-26T12:04:04.176Z,21.60
2022-07-26T12:06:52.160Z,21.50
2022-07-26T12:09:41.044Z,21.50
2022-07-26T12:12:32.054Z,21.80
2022-07-26T12:15:21.941Z,21.90
2022-07-26T12:18:12.492Z,22.00
2022-07-26T12:21:05.720Z,22.10
2022-07-26T12:23:54.077Z,22.10
2022-07-26T12:26:41.815Z,21.90
2022-07-26T12:29:36.320Z,21.60
2022-07-26T12:32:31.693Z,21.60
2022-07-26T12:35:29.573Z,21.40
2022-07-26T12:38:19.625Z,21.40
2022-07-26T12:41:15.040Z,21.40
2022-07-26T12:44:03.124Z,21.20
2022-07-26T12:46:56.042Z,20.90
2022-07-26T12:49:51.474Z,21.20
2022-07-26T12:52:42.583Z,20.90
2022-07-26T12:55:30.885Z,21.00
2022-07-26T12:58:19.054Z,22.00
2022-07-26T13:01:10.288Z,21.30
2022-07-26T13:03:58.446Z,21.30
2022-07-26T13:06:47.859Z,21.20
2022-07-26T13:09:35.303Z,21.50
2022-07-26T13:12:22.680Z,21.30
2022-07-26T13:15:14.866Z,21.50
2022-07-26T13:18:03.391Z,21.70
2022-07-26T13:20:54.945Z,21.80
2022-07-26T13:23:46.697Z,21.80
2022-07-26T13:26:38.706Z,21.40
2022-07-26T13:29:29.392Z,21.20
2022-07-26T13:32:21.509Z,21.00
2022-07-26T13:35:11.137Z,21.90
2022-07-26T13:38:01.100Z,21.00
2022-07-26T13:40:53.830Z,20.90
2022-07-26T13:43:41.695Z,20.00
2022-07-26T13:46:34.036Z,19.10
2022-07-26T13:49:22.192Z,21.80
2022-07-26T13:52:15.176Z,20.50
2022-07-26T13:55:06.613Z,20.90
2022-07-26T13:57:58.169Z,20.80
2022-07-26T14:00:47.354Z,20.90
2022-07-26T14:03:36.539Z,21.10
2022-07-26T14:06:26.606Z,21.30
2022-07-26T14:09:15.490Z,21.20
2022-07-26T14:12:09.805Z,21.20
2022-07-26T14:14:58.487Z,21.00
2022-07-26T14:17:47.553Z,20.50
2022-07-26T14:20:36.056Z,20.60
2022-07-26T14:23:23.838Z,20.60
2022-07-26T14:26:12.291Z,20.20
2022-07-26T14:29:00.372Z,19.90
2022-07-26T14:31:52.315Z,19.50
2022-07-26T14:34:40.604Z,18.60
2022-07-26T14:37:44.546Z,20.00
2022-07-26T14:40:36.932Z,20.10
2022-07-26T14:43:26.725Z,20.40
2022-07-26T14:46:15.428Z,20.70
2022-07-26T14:49:05.013Z,22.00
2022-07-26T14:51:53.851Z,20.60
2022-07-26T14:54:43.217Z,20.40
2022-07-26T14:57:32.625Z,20.20
2022-07-26T15:00:24.991Z,20.00
2022-07-26T15:03:14.276Z,21.10
2022-07-26T15:06:06.600Z,19.90
2022-07-26T15:08:54.620Z,19.80
2022-07-26T15:11:42.833Z,20.10
2022-07-26T15:14:31.504Z,20.40
2022-07-26T15:17:19.018Z,20.40
2022-07-26T15:20:10.119Z,20.30
2022-07-26T15:23:00.054Z,20.00
2022-07-26T15:25:51.026Z,19.70
2022-07-26T15:28:45.063Z,19.80
2022-07-26T15:31:43.157Z,19.80
2022-07-26T15:34:31.412Z,19.80
2022-07-26T15:37:21.967Z,19.60
2022-07-26T15:40:18.613Z,19.70
2022-07-26T15:43:09.442Z,19.90
2022-07-26T15:46:00.787Z,19.80
2022-07-26T15:48:50.935Z,19.90
2022-07-26T15:51:38.840Z,20.10
2022-07-26T15:54:31.202Z,20.60
2022-07-26T15:57:23.399Z,19.90
2022-07-26T16:00:15.554Z,20.10
2022-07-26T16:03:03.062Z,20.00
2022-07-26T16:05:50.458Z,20.00
2022-07-26T16:08:58.543Z,20.10
2022-07-26T16:11:46.555Z,20.30
2022-07-26T16:14:35.948Z,20.60
2022-07-26T16:17:23.838Z,20.70
2022-07-26T16:20:11.689Z,20.30
2022-07-26T16:23:00.305Z,20.20
2022-07-26T16:25:49.273Z,20.10
2022-07-26T16:28:40.069Z,21.10
2022-07-26T16:31:32.284Z,21.20
2022-07-26T16:34:32.621Z,19.80
2022-07-26T16:37:23.912Z,20.60
2022-07-26T16:40:21.589Z,20.10
2022-07-26T16:43:11.985Z,20.50
2022-07-26T16:46:00.425Z,20.50
2022-07-26T16:48:49.920Z,19.20
2022-07-26T16:51:37.852Z,20.40
2022-07-26T16:54:25.501Z,18.50
2022-07-26T16:57:13.183Z,20.00
2022-07-26T17:00:06.504Z,19.80
2022-07-26T17:02:55.724Z,19.70
2022-07-26T17:05:47.918Z,19.50
2022-07-26T17:08:35.802Z,19.40
2022-07-26T17:11:29.438Z,19.30
2022-07-26T17:14:20.772Z,19.40
2022-07-26T17:17:10.565Z,19.40
2022-07-26T17:20:01.200Z,19.40
2022-07-26T17:22:50.224Z,19.60
2022-07-26T17:25:38.721Z,20.00
2022-07-26T17:28:29.449Z,20.10
2022-07-26T17:31:21.264Z,20.00
2022-07-26T17:34:08.794Z,19.90
2022-07-26T17:37:00.059Z,19.70
2022-07-26T17:39:53.535Z,19.60
2022-07-26T17:42:44.880Z,19.50
2022-07-26T17:45:32.178Z,19.40
2022-07-26T17:48:20.166Z,19.40
2022-07-26T17:51:08.733Z,19.30
2022-07-26T17:54:01.693Z,19.40
2022-07-26T17:56:53.383Z,19.20
2022-07-26T17:59:42.185Z,19.10
2022-07-26T18:02:31.538Z,19.10
2022-07-26T18:05:22.262Z,19.10
2022-07-26T18:08:18.807Z,19.10
2022-07-26T18:11:07.880Z,19.20
2022-07-26T18:13:58.855Z,19.20
2022-07-26T18:16:54.459Z,19.20
2022-07-26T18:19:52.307Z,19.20
2022-07-26T18:22:50.112Z,19.40
2022-07-26T18:25:39.413Z,19.30
2022-07-26T18:28:26.942Z,19.30
2022-07-26T18:31:18.626Z,19.20
2022-07-26T18:34:06.836Z,19.10
2022-07-26T18:36:54.741Z,19.00
2022-07-26T18:39:42.818Z,18.90
2022-07-26T18:42:30.199Z,19.20
2022-07-26T18:45:18.050Z,18.70
2022-07-26T18:48:07.661Z,18.70
2022-07-26T18:50:56.001Z,18.60
2022-07-26T18:53:44.423Z,18.60
2022-07-26T18:56:31.748Z,19.60
2022-07-26T18:59:20.024Z,18.50
2022-07-26T19:02:07.970Z,18.40
2022-07-26T19:04:57.114Z,18.50
2022-07-26T19:07:45.899Z,18.30
2022-07-26T19:10:34.535Z,18.50
2022-07-26T19:13:22.021Z,18.30
2022-07-26T19:16:10.096Z,18.30
2022-07-26T19:18:57.890Z,18.20
2022-07-26T19:21:49.484Z,18.20
2022-07-26T19:24:37.287Z,18.90
2022-07-26T19:27:29.139Z,18.40
2022-07-26T19:30:16.918Z,18.10
2022-07-26T19:33:04.743Z,18.10
2022-07-26T19:35:54.631Z,18.00
2022-07-26T19:38:44.850Z,17.90
2022-07-26T19:41:33.116Z,17.90
2022-07-26T19:44:25.737Z,17.90
2022-07-26T19:47:14.022Z,17.80
2022-07-26T19:50:04.633Z,19.10
2022-07-26T19:52:52.209Z,17.80
2022-07-26T19:55:46.366Z,17.80
2022-07-26T19:58:37.373Z,17.70
2022-07-26T20:01:25.353Z,17.70
2022-07-26T20:04:14.140Z,17.70
2022-07-26T20:07:01.561Z,17.60
2022-07-26T20:09:49.396Z,17.60
2022-07-26T20:12:39.288Z,17.50
2022-07-26T20:15:28.265Z,17.50
2022-07-26T20:18:18.448Z,17.50
2022-07-26T20:21:07.507Z,17.50
2022-07-26T20:23:56.895Z,17.50
2022-07-26T20:26:45.458Z,17.50
2022-07-26T20:29:36.791Z,17.40
2022-07-26T20:32:24.253Z,17.40
2022-07-26T20:35:12.417Z,17.90
2022-07-26T20:38:01.006Z,17.40
2022-07-26T20:40:49.467Z,18.80
2022-07-26T20:43:39.407Z,17.40
2022-07-26T20:46:40.277Z,17.50
2022-07-26T20:49:28.980Z,17.40
2022-07-26T20:52:17.733Z,17.40
2022-07-26T20:55:06.062Z,18.00
2022-07-26T20:57:54.027Z,17.40
2022-07-26T21:00:43.103Z,17.40
2022-07-26T21:03:33.984Z,19.40
2022-07-26T21:06:23.997Z,17.50
2022-07-26T21:09:13.766Z,17.30
2022-07-26T21:12:01.938Z,17.20
2022-07-26T21:14:49.719Z,17.20
2022-07-26T21:17:40.229Z,18.60
2022-07-26T21:20:32.197Z,17.10
2022-07-26T21:23:20.229Z,17.10
2022-07-26T21:26:15.220Z,17.40
2022-07-26T21:29:02.882Z,17.10
2022-07-26T21:31:50.652Z,17.00
2022-07-26T21:34:38.115Z,17.00
2022-07-26T21:37:27.657Z,16.90
2022-07-26T21:40:16.884Z,16.90
2022-07-26T21:43:05.129Z,16.90
2022-07-26T21:45:56.482Z,16.90
2022-07-26T21:48:44.681Z,17.00
2022-07-26T21:51:32.975Z,16.80
2022-07-26T21:54:22.875Z,18.00
2022-07-26T21:57:10.657Z,16.70
2022-07-26T21:59:58.424Z,16.70
2022-07-26T22:02:45.868Z,16.60
2022-07-26T22:05:38.336Z,16.60
2022-07-26T22:08:26.807Z,16.50
2022-07-26T22:11:15.466Z,16.60
2022-07-26T22:14:03.474Z,15.60
2022-07-26T22:16:51.667Z,16.40
2022-07-26T22:19:42.826Z,16.40
2022-07-26T22:22:31.281Z,16.40
2022-07-26T22:25:20.041Z,16.30
2022-07-26T22:28:09.885Z,16.30
2022-07-26T22:30:57.197Z,16.20
2022-07-26T22:33:45.391Z,16.30
2022-07-26T22:36:33.061Z,16.10
2022-07-26T22:39:20.784Z,16.10
2022-07-26T22:42:16.082Z,16.00
2022-07-26T22:45:09.990Z,15.80
2022-07-26T22:47:59.366Z,16.00
2022-07-26T22:50:47.239Z,16.00
2022-07-26T22:53:34.679Z,16.10
2022-07-26T22:56:22.739Z,16.30
2022-07-26T22:59:11.447Z,15.90
2022-07-26T23:02:02.112Z,16.20
2022-07-26T23:04:50.134Z,15.90
2022-07-26T23:07:38.104Z,15.30
2022-07-26T23:10:27.034Z,15.80
2022-07-26T23:13:16.713Z,15.70
2022-07-26T23:16:04.607Z,15.70
2022-07-26T23:18:54.237Z,15.70
2022-07-26T23:21:41.818Z,15.80
2022-07-26T23:24:29.550Z,15.50
2022-07-26T23:27:20.403Z,15.60
2022-07-26T23:30:09.570Z,15.60
2022-07-26T23:32:57.659Z,15.50
2022-07-26T23:35:46.423Z,15.50
2022-07-26T23:38:34.118Z,15.50
2022-07-26T23:41:21.916Z,15.40
2022-07-26T23:44:10.337Z,15.40
2022-07-26T23:46:58.577Z,15.30
2022-07-26T23:49:46.878Z,15.10
2022-07-26T23:52:40.132Z,15.20
2022-07-26T23:55:36.063Z,15.20
2022-07-26T23:58:24.163Z,15.10
